Time;durP1;ratioP1;P1;durP2;ratioP2;P2;SDS_P1;SDS_P2;PMS_P1;PMS_P2;Temp;Humidity;BMP_temperature;BMP_pressure;BME280_temperature;BME280_humidity;BME280_pressure;Samples;Min_cycle;Max_cycle;Signal;HPM_P1;HPM_P2
2024/02/08 00:02:14;;;;;;;13.90;4.93;;;0.50;99.90;;;;;;5093593;28;20052;-74
2024/02/08 00:04:41;;;;;;;11.90;5.10;;;0.50;99.90;;;;;;5086135;27;20062;-74
2024/02/08 00:07:07;;;;;;;14.75;4.75;;;0.40;99.90;;;;;;5110497;27;20047;-74
2024/02/08 00:09:33;;;;;;;11.85;4.95;;;0.40;99.90;;;;;;5102385;27;20032;-74
2024/02/08 00:11:59;;;;;;;12.83;5.43;;;0.40;99.90;;;;;;5089450;28;20043;-74
2024/02/08 00:14:24;;;;;;;14.82;5.38;;;0.40;99.90;;;;;;5102422;28;20046;-75
2024/02/08 00:16:52;;;;;;;15.13;4.95;;;0.40;99.90;;;;;;5079919;28;20047;-75
2024/02/08 00:19:17;;;;;;;12.18;4.78;;;0.40;99.90;;;;;;5101888;28;20054;-74
2024/02/08 00:21:44;;;;;;;13.82;5.32;;;0.40;99.90;;;;;;5093733;27;20039;-74
2024/02/08 00:24:10;;;;;;;13.57;5.13;;;0.40;99.90;;;;;;5103961;27;20040;-75
2024/02/08 00:26:36;;;;;;;19.45;5.97;;;0.40;99.90;;;;;;5087465;27;20037;-74
2024/02/08 00:29:02;;;;;;;15.93;5.87;;;0.30;99.90;;;;;;5098462;27;20142;-75
2024/02/08 00:31:27;;;;;;;13.73;6.20;;;0.30;99.90;;;;;;5110441;27;20035;-75
2024/02/08 00:33:53;;;;;;;19.92;6.82;;;0.20;99.90;;;;;;5102711;27;20127;-74
2024/02/08 00:36:19;;;;;;;18.17;5.80;;;0.30;99.90;;;;;;5100964;27;20040;-74
2024/02/08 00:38:45;;;;;;;12.18;5.18;;;0.30;99.90;;;;;;5097481;28;20055;-75
2024/02/08 00:41:10;;;;;;;11.93;5.38;;;0.30;99.90;;;;;;5080038;28;20123;-75
2024/02/08 00:43:39;;;;;;;13.30;6.55;;;0.40;99.90;;;;;;5100961;27;20481;-75
2024/02/08 00:46:08;;;;;;;13.48;5.63;;;0.30;99.90;;;;;;5099633;27;20126;-74
2024/02/08 00:48:34;;;;;;;21.25;6.57;;;0.30;99.90;;;;;;5107805;27;20031;-75
2024/02/08 00:51:00;;;;;;;14.48;6.55;;;0.20;99.90;;;;;;5103487;27;20042;-75
2024/02/08 00:53:25;;;;;;;13.38;5.47;;;0.20;99.90;;;;;;5088481;27;20039;-75
2024/02/08 00:55:51;;;;;;;13.40;5.22;;;0.20;99.90;;;;;;5106484;27;20488;-74
2024/02/08 00:58:17;;;;;;;12.40;5.90;;;0.20;99.90;;;;;;5081525;27;20537;-74
2024/02/08 01:00:47;;;;;;;14.95;6.03;;;0.20;99.90;;;;;;5085049;28;20039;-74
2024/02/08 01:03:13;;;;;;;15.30;5.50;;;0.20;99.90;;;;;;5078813;27;20130;-74
2024/02/08 01:05:39;;;;;;;14.45;5.80;;;0.20;99.90;;;;;;5082742;28;20114;-75
2024/02/08 01:08:05;;;;;;;11.57;5.57;;;0.30;99.90;;;;;;5104500;27;20681;-75
2024/02/08 01:10:31;;;;;;;13.60;5.57;;;0.20;99.90;;;;;;5095964;28;20050;-75
2024/02/08 01:12:59;;;;;;;15.52;6.63;;;0.30;99.90;;;;;;5083686;27;20134;-75
2024/02/08 01:15:26;;;;;;;15.13;5.95;;;0.20;99.90;;;;;;5085119;28;20451;-75
2024/02/08 01:17:52;;;;;;;14.98;6.25;;;0.20;99.90;;;;;;5098716;27;20126;-75
2024/02/08 01:20:27;;;;;;;14.52;6.63;;;0.20;99.90;;;;;;5098150;28;20127;-75
2024/02/08 01:22:54;;;;;;;15.23;5.82;;;0.20;99.90;;;;;;5082392;28;20469;-75
2024/02/08 01:25:19;;;;;;;14.90;6.30;;;0.30;99.90;;;;;;5084553;27;20049;-75
2024/02/08 01:27:45;;;;;;;13.23;5.90;;;0.30;99.90;;;;;;5095668;27;20039;-75
2024/02/08 01:30:13;;;;;;;15.80;6.00;;;0.20;99.90;;;;;;5101616;27;20039;-75
2024/02/08 01:32:42;;;;;;;16.80;7.07;;;0.20;99.90;;;;;;5103053;27;20115;-75
2024/02/08 01:35:12;;;;;;;15.73;6.53;;;0.10;99.90;;;;;;5082179;28;20548;-75
2024/02/08 01:37:40;;;;;;;12.07;6.07;;;0.20;99.90;;;;;;5096227;27;20043;-75
2024/02/08 01:40:16;;;;;;;14.57;6.05;;;0.20;99.90;;;;;;5091811;28;20044;-75
2024/02/08 01:42:48;;;;;;;10.52;5.80;;;0.20;99.90;;;;;;5106912;27;20052;-75
2024/02/08 01:45:37;;;;;;;14.40;6.47;;;0.10;99.90;;;;;;5097636;27;20602;-75
2024/02/08 01:48:10;;;;;;;15.65;6.32;;;0.10;99.90;;;;;;5099270;27;20047;-75
2024/02/08 01:50:48;;;;;;;15.98;6.28;;;0.10;99.90;;;;;;5094139;27;20067;-75
2024/02/08 01:53:18;;;;;;;15.88;5.93;;;0.00;99.90;;;;;;5093964;27;20046;-75
2024/02/08 01:55:49;;;;;;;;;;;0.00;99.90;;;;;;5079199;28;20498;-75
2024/02/08 01:58:15;;;;;;;12.40;6.17;;;0.00;99.90;;;;;;5102113;27;20370;-75
2024/02/08 02:00:48;;;;;;;12.80;5.60;;;-0.10;99.90;;;;;;5088817;28;20046;-75
2024/02/08 02:03:15;;;;;;;16.98;5.40;;;0.00;99.90;;;;;;5092595;28;20035;-75
2024/02/08 02:05:42;;;;;;;13.73;5.30;;;0.00;99.90;;;;;;5087450;28;20050;-75
2024/02/08 02:08:22;;;;;;;18.17;5.73;;;0.00;99.90;;;;;;5095904;28;20425;-75
2024/02/08 02:11:15;;;;;;;13.55;5.85;;;0.00;99.90;;;;;;5100838;28;20059;-75
2024/02/08 02:13:42;;;;;;;11.95;5.53;;;-0.10;99.90;;;;;;5092619;28;20120;-75
2024/02/08 02:16:08;;;;;;;12.93;5.32;;;-0.10;99.90;;;;;;5107494;28;20048;-75
2024/02/08 02:18:33;;;;;;;13.13;5.57;;;-0.10;99.90;;;;;;5096818;28;20032;-75
2024/02/08 02:21:01;;;;;;;14.20;5.67;;;-0.10;99.90;;;;;;5083673;28;20047;-75
2024/02/08 02:23:27;;;;;;;14.67;5.53;;;-0.10;99.90;;;;;;5089126;28;20074;-75
2024/02/08 02:25:54;;;;;;;12.80;5.40;;;-0.10;99.90;;;;;;5098195;28;20044;-75
2024/02/08 02:28:20;;;;;;;14.13;5.53;;;-0.10;99.90;;;;;;5098618;28;20133;-75
2024/02/08 02:30:48;;;;;;;18.33;6.07;;;-0.10;99.90;;;;;;5083664;28;20043;-75
2024/02/08 02:33:16;;;;;;;17.52;6.63;;;-0.10;99.90;;;;;;5095440;28;20036;-74
2024/02/08 02:35:48;;;;;;;18.65;6.00;;;-0.10;99.90;;;;;;5090749;28;20627;-75
2024/02/08 02:38:24;;;;;;;14.20;5.57;;;-0.20;99.90;;;;;;5090811;28;21244;-75
2024/02/08 02:40:49;;;;;;;14.20;5.57;;;-0.10;99.90;;;;;;5097586;28;20549;-75
2024/02/08 02:43:15;;;;;;;12.37;5.97;;;-0.10;99.90;;;;;;5106739;28;20043;-75
2024/02/08 02:45:41;;;;;;;16.05;6.50;;;-0.20;99.90;;;;;;5098211;28;20032;-74
2024/02/08 02:48:07;;;;;;;12.27;6.10;;;-0.20;99.90;;;;;;5098953;28;20040;-75
2024/02/08 02:50:33;;;;;;;12.63;6.27;;;-0.10;99.90;;;;;;5076857;28;20405;-75
2024/02/08 02:52:59;;;;;;;17.20;6.10;;;-0.30;99.90;;;;;;5084602;28;20044;-75
2024/02/08 02:55:27;;;;;;;16.73;6.73;;;-0.30;99.90;;;;;;5093839;28;20035;-75
2024/02/08 02:57:57;;;;;;;16.17;5.82;;;-0.30;99.90;;;;;;5081986;28;20051;-75
2024/02/08 03:00:24;;;;;;;;;;;-0.30;99.90;;;;;;5088358;28;20244;-75
2024/02/08 03:02:57;;;;;;;14.20;7.00;;;-0.30;99.90;;;;;;5105455;28;19920;-75
2024/02/08 03:05:24;;;;;;;18.73;7.67;;;-0.30;99.90;;;;;;5086615;28;20546;-75
2024/02/08 03:07:51;;;;;;;15.30;6.70;;;-0.30;99.90;;;;;;5088920;28;20078;-75
2024/02/08 03:10:20;;;;;;;14.43;6.72;;;-0.30;99.90;;;;;;5089590;28;20461;-75
2024/02/08 03:12:52;;;;;;;14.27;6.77;;;-0.30;99.90;;;;;;5103940;28;20039;-75
2024/02/08 03:15:19;;;;;;;17.30;6.80;;;-0.30;99.90;;;;;;5086656;28;20036;-75
2024/02/08 03:17:48;;;;;;;19.88;6.68;;;-0.30;99.90;;;;;;5107655;28;20169;-75
2024/02/08 03:20:18;;;;;;;14.20;6.73;;;-0.30;99.90;;;;;;5093320;28;20102;-75
2024/02/08 03:22:46;;;;;;;15.18;6.80;;;-0.20;99.90;;;;;;5090867;28;20043;-74
2024/02/08 03:25:14;;;;;;;15.17;6.23;;;-0.20;99.90;;;;;;5092605;28;20050;-75
2024/02/08 03:27:43;;;;;;;15.63;6.50;;;-0.20;99.90;;;;;;5091202;28;20065;-75
2024/02/08 03:30:30;;;;;;;14.25;7.05;;;-0.20;99.90;;;;;;5109636;28;20058;-75
2024/02/08 03:33:02;;;;;;;17.30;7.20;;;-0.20;99.90;;;;;;5088273;28;20044;-75
2024/02/08 03:35:27;;;;;;;15.37;7.63;;;-0.20;99.90;;;;;;5103875;28;20085;-75
2024/02/08 03:38:00;;;;;;;13.13;7.13;;;-0.10;99.90;;;;;;5087131;28;20048;-75
2024/02/08 03:40:29;;;;;;;15.07;9.10;;;-0.20;99.90;;;;;;5082495;28;20177;-75
2024/02/08 03:42:55;;;;;;;13.70;8.43;;;-0.20;99.90;;;;;;5120229;27;20054;-75
2024/02/08 03:45:23;;;;;;;20.67;8.80;;;-0.20;99.90;;;;;;5102500;28;20055;-76
2024/02/08 03:48:01;;;;;;;15.73;8.77;;;-0.10;99.90;;;;;;5102804;28;20032;-76
2024/02/08 03:50:33;;;;;;;14.03;8.60;;;-0.10;99.90;;;;;;5097739;28;20555;-76
2024/02/08 03:53:03;;;;;;;14.93;7.93;;;-0.10;99.90;;;;;;5101942;28;20075;-76
2024/02/08 03:55:29;;;;;;;13.10;7.75;;;-0.20;99.90;;;;;;5087031;28;20055;-76
2024/02/08 03:58:00;;;;;;;15.60;7.75;;;-0.20;99.90;;;;;;5106480;27;20047;-76
2024/02/08 04:00:29;;;;;;;15.50;8.02;;;-0.20;99.90;;;;;;5102268;27;20054;-76
2024/02/08 04:02:59;;;;;;;19.77;8.63;;;-0.20;99.90;;;;;;5087885;27;20492;-76
2024/02/08 04:05:42;;;;;;;15.00;7.85;;;-0.20;99.90;;;;;;5103216;28;20035;-76
2024/02/08 04:54:37;;;;;;;18.37;9.53;;;0.00;99.90;;;;;;5098512;28;20126;-74
2024/02/08 04:57:03;;;;;;;15.03;8.97;;;0.00;99.90;;;;;;5101699;27;20166;-76
2024/02/08 04:59:29;;;;;;;15.88;9.20;;;0.00;99.90;;;;;;5093926;27;20251;-74
2024/02/08 05:01:56;;;;;;;12.60;9.35;;;0.00;99.90;;;;;;5106457;27;20043;-75
2024/02/08 05:04:22;;;;;;;14.20;9.30;;;0.00;99.90;;;;;;5086303;28;20075;-75
2024/02/08 05:06:48;;;;;;;12.93;8.87;;;0.00;99.90;;;;;;5109065;27;20039;-75
2024/02/08 05:09:20;;;;;;;14.57;9.10;;;0.00;99.90;;;;;;5102086;27;20428;-75
2024/02/08 05:11:48;;;;;;;14.67;9.07;;;0.00;99.90;;;;;;5088422;27;20036;-75
2024/02/08 05:14:15;;;;;;;15.32;9.75;;;0.10;99.90;;;;;;5109288;27;20043;-72
2024/02/08 05:16:41;;;;;;;19.07;10.67;;;0.10;99.90;;;;;;5100166;27;20039;-72
2024/02/08 05:19:09;;;;;;;18.70;11.17;;;0.00;99.90;;;;;;5110892;27;20045;-72
2024/02/08 05:21:40;;;;;;;17.20;9.83;;;0.10;99.90;;;;;;5099155;28;20058;-72
2024/02/08 05:24:12;;;;;;;18.38;10.15;;;0.00;99.90;;;;;;5087572;28;20039;-72
2024/02/08 05:26:40;;;;;;;16.48;10.13;;;0.00;99.90;;;;;;5097217;27;20040;-72
2024/02/08 05:29:08;;;;;;;18.43;10.37;;;0.00;99.90;;;;;;5105605;27;20051;-73
2024/02/08 05:31:39;;;;;;;22.05;10.60;;;0.00;99.90;;;;;;5092920;28;20040;-73
2024/02/08 05:34:11;;;;;;;18.00;10.65;;;0.00;99.90;;;;;;5091908;27;20047;-73
2024/02/08 05:36:39;;;;;;;17.57;10.30;;;0.10;99.90;;;;;;5074672;27;20052;-74
2024/02/08 05:39:23;;;;;;;18.70;10.30;;;0.10;99.90;;;;;;5093255;28;20092;-73
2024/02/08 05:41:53;;;;;;;15.95;9.68;;;0.10;99.90;;;;;;5091628;27;20077;-73
2024/02/08 05:44:20;;;;;;;17.52;10.73;;;0.00;99.90;;;;;;5093263;28;20044;-73
2024/02/08 05:46:49;;;;;;;12.97;9.43;;;0.10;99.90;;;;;;5100817;28;20536;-73
2024/02/08 05:49:15;;;;;;;15.18;8.85;;;0.10;99.90;;;;;;5085474;27;20157;-73
2024/02/08 05:51:46;;;;;;;17.55;10.05;;;0.20;99.90;;;;;;5075770;28;20119;-73
2024/02/08 05:54:16;;;;;;;16.57;10.20;;;0.20;99.90;;;;;;5097484;27;20085;-73
2024/02/08 05:56:43;;;;;;;19.52;11.27;;;0.20;99.90;;;;;;5083577;28;20158;-73
2024/02/08 05:59:09;;;;;;;17.63;10.57;;;0.20;99.90;;;;;;5101083;27;20047;-73
2024/02/08 06:01:47;;;;;;;19.63;11.02;;;0.20;99.90;;;;;;5104092;28;20146;-73
2024/02/08 06:04:25;;;;;;;18.10;10.73;;;0.20;99.90;;;;;;5085452;28;20090;-73
2024/02/08 06:07:07;;;;;;;13.70;10.00;;;0.30;99.90;;;;;;5080300;28;20047;-73
2024/02/08 06:12:23;;;;;;;15.98;9.63;;;0.20;99.90;;;;;;5103301;27;20038;-73
2024/02/08 06:14:58;;;;;;;21.70;12.40;;;0.30;99.90;;;;;;5099564;28;20059;-73
2024/02/08 06:17:33;;;;;;;22.02;13.65;;;0.30;99.90;;;;;;5097995;28;20416;-73
2024/02/08 06:20:00;;;;;;;17.53;10.23;;;0.30;99.90;;;;;;5087983;28;20058;-73
2024/02/08 06:22:28;;;;;;;16.92;9.70;;;0.30;99.90;;;;;;5105302;28;20432;-73
2024/02/08 06:25:27;;;;;;;18.63;10.35;;;0.30;99.90;;;;;;5075234;28;20051;-76
2024/02/08 06:27:56;;;;;;;17.38;10.20;;;0.30;99.90;;;;;;5107142;28;20055;-76
2024/02/08 06:30:25;;;;;;;17.20;10.30;;;0.40;99.90;;;;;;5093557;28;20834;-76
2024/02/08 06:33:24;;;;;;;18.88;10.57;;;0.40;99.90;;;;;;5100271;28;20040;-76
2024/02/08 06:35:39;;;;;;;19.83;10.73;;;0.40;99.90;;;;;;5100098;28;20063;-76
2024/02/08 06:38:13;;;;;;;16.98;11.20;;;0.50;99.90;;;;;;5087149;28;20047;-76
2024/02/08 06:40:56;;;;;;;20.10;11.93;;;0.50;99.90;;;;;;5082184;28;20490;-76
2024/02/08 07:37:59;;;;;;;16.40;10.23;;;0.80;99.90;;;;;;5107329;28;20083;-77
2024/02/08 07:40:25;;;;;;;17.15;10.50;;;0.80;99.90;;;;;;5095191;28;21116;-77
2024/02/08 07:45:42;;;;;;;14.68;9.07;;;0.80;99.90;;;;;;5103778;27;20431;-76
2024/02/08 07:48:12;;;;;;;12.85;9.40;;;0.90;99.90;;;;;;5100242;27;20142;-76
2024/02/08 07:50:44;;;;;;;15.43;9.15;;;1.00;99.90;;;;;;5102915;27;20076;-76
2024/02/08 07:53:33;;;;;;;14.82;8.85;;;1.10;99.90;;;;;;5098520;27;20054;-76
2024/02/08 07:56:29;;;;;;;15.93;7.97;;;1.30;99.90;;;;;;5097843;28;20451;-76
2024/02/08 07:58:48;;;;;;;14.50;8.43;;;1.40;99.90;;;;;;5098152;27;20552;-77
2024/02/08 08:01:18;;;;;;;15.55;8.50;;;1.50;99.90;;;;;;5106527;27;20047;-76
2024/02/08 08:03:50;;;;;;;21.40;10.13;;;1.60;99.90;;;;;;5079095;28;20489;-76
2024/02/08 08:06:16;;;;;;;15.85;9.70;;;1.60;99.90;;;;;;5085538;28;20108;-76
2024/02/08 08:08:43;;;;;;;15.05;9.57;;;1.60;99.90;;;;;;5104003;27;20051;-76
2024/02/08 08:11:15;;;;;;;12.20;9.00;;;1.50;99.90;;;;;;5100654;27;20070;-76
2024/02/08 08:14:06;;;;;;;14.95;9.23;;;1.50;99.90;;;;;;5089834;28;20055;-75
2024/02/08 08:18:59;;;;;;;18.85;8.73;;;1.70;99.90;;;;;;5096712;28;20115;-78
2024/02/08 08:21:29;;;;;;;14.30;8.57;;;1.70;99.90;;;;;;5083685;28;20405;-78
2024/02/08 08:24:02;;;;;;;12.38;7.68;;;1.80;99.90;;;;;;5094286;28;20081;-78
2024/02/08 08:26:44;;;;;;;18.92;9.10;;;1.80;99.90;;;;;;5094335;27;20130;-78
2024/02/08 08:29:16;;;;;;;17.80;8.40;;;1.80;99.90;;;;;;5100776;27;20112;-78
2024/02/08 08:38:13;;;;;;;13.23;8.43;;;1.80;99.90;;;;;;5106844;27;20050;-78
2024/02/08 08:40:23;;;;;;;18.42;7.57;;;1.80;99.90;;;;;;5098435;27;20486;-78
2024/02/08 08:42:57;;;;;;;17.52;7.65;;;1.90;99.90;;;;;;5102612;27;20079;-78
2024/02/08 08:45:23;;;;;;;14.88;6.75;;;2.00;99.90;;;;;;5101645;27;20050;-79
2024/02/08 08:47:51;;;;;;;18.63;7.68;;;2.00;99.90;;;;;;5092251;27;20047;-79
2024/02/08 08:50:20;;;;;;;14.32;6.38;;;2.10;99.90;;;;;;5096706;28;20425;-78
2024/02/08 08:52:47;;;;;;;14.88;6.72;;;2.10;99.90;;;;;;5090168;27;20071;-78
2024/02/08 08:55:20;;;;;;;14.25;6.07;;;2.30;99.90;;;;;;5092199;28;20047;-78
2024/02/08 08:58:00;;;;;;;14.30;6.20;;;2.40;99.90;;;;;;5095622;28;20048;-79
2024/02/08 09:00:32;;;;;;;15.85;5.63;;;2.40;99.90;;;;;;5099205;27;20043;-79
2024/02/08 09:03:25;;;;;;;14.05;5.40;;;2.50;99.90;;;;;;5098536;27;20051;-79
2024/02/08 09:05:59;;;;;;;14.63;5.65;;;2.60;99.90;;;;;;5096741;27;20052;-79
2024/02/08 09:08:41;;;;;;;13.30;5.70;;;2.60;99.90;;;;;;5098080;27;20035;-79
2024/02/08 09:11:12;;;;;;;14.20;5.18;;;2.70;99.90;;;;;;5100390;27;20436;-79
2024/02/08 09:13:51;;;;;;;16.85;6.10;;;2.70;99.90;;;;;;5091232;28;20067;-78
2024/02/08 09:21:32;;;;;;;13.95;5.10;;;2.80;99.90;;;;;;5103645;27;20044;-79
2024/02/08 09:24:11;;;;;;;11.20;5.32;;;2.90;99.90;;;;;;5105820;27;20048;-79
2024/02/08 09:27:00;;;;;;;10.70;5.05;;;2.80;99.90;;;;;;5107338;27;20043;-78
2024/02/08 09:29:38;;;;;;;15.82;6.22;;;2.90;99.90;;;;;;5079473;28;20130;-78
2024/02/08 09:32:47;;;;;;;14.38;5.60;;;2.90;99.90;;;;;;5096494;27;20417;-78
2024/02/08 09:34:54;;;;;;;14.88;5.75;;;3.00;99.90;;;;;;5097184;27;20493;-78
2024/02/08 09:37:20;;;;;;;13.82;5.55;;;3.00;99.90;;;;;;5109504;27;20059;-78
2024/02/08 09:39:53;;;;;;;13.98;5.07;;;2.90;99.90;;;;;;5100883;28;20158;-77
2024/02/08 09:42:37;;;;;;;15.35;5.47;;;3.00;99.90;;;;;;5088416;27;20107;-78
2024/02/08 09:47:52;;;;;;;17.60;5.15;;;3.00;99.90;;;;;;5096306;28;20043;-78
2024/02/08 09:50:36;;;;;;;14.23;5.00;;;3.10;99.90;;;;;;5102381;27;20404;-78
2024/02/08 09:53:19;;;;;;;16.63;6.45;;;3.20;99.90;;;;;;5109558;27;20043;-78
2024/02/08 09:55:55;;;;;;;14.93;4.90;;;3.20;99.90;;;;;;5089436;27;20051;-78
2024/02/08 09:58:55;;;;;;;15.07;5.00;;;3.20;99.90;;;;;;5089451;27;20500;-79
2024/02/08 10:01:30;;;;;;;14.98;4.80;;;3.30;99.90;;;;;;5082928;28;20195;-78
2024/02/08 10:04:07;;;;;;;15.18;5.03;;;3.30;99.90;;;;;;5083601;28;20044;-78
2024/02/08 10:06:45;;;;;;;17.95;5.32;;;3.40;99.90;;;;;;5088083;27;20109;-78
2024/02/08 10:11:59;;;;;;;14.52;5.53;;;3.50;99.90;;;;;;5098269;27;20131;-78
2024/02/08 10:14:26;;;;;;;17.38;5.25;;;3.60;99.90;;;;;;5078071;28;20036;-78
2024/02/08 10:17:01;;;;;;;15.90;5.53;;;3.70;99.90;;;;;;5079646;28;20035;-77
2024/02/08 10:22:18;;;;;;;20.88;5.72;;;3.60;99.90;;;;;;5101542;28;20043;-78
2024/02/08 10:27:20;;;;;;;14.95;4.82;;;3.70;99.90;;;;;;5102566;28;20052;-76
2024/02/08 10:29:56;;;;;;;;;;;3.70;99.90;;;;;;5106955;27;20770;-77
2024/02/08 10:32:27;;;;;;;13.18;4.95;;;3.70;99.90;;;;;;5105014;27;20741;-76
2024/02/08 10:35:13;;;;;;;12.85;4.18;;;3.80;99.90;;;;;;5092169;27;20044;-76
2024/02/08 10:38:08;;;;;;;14.15;4.75;;;3.80;99.90;;;;;;5108403;27;20154;-76
2024/02/08 10:40:35;;;;;;;16.35;4.00;;;3.80;99.90;;;;;;5082678;27;20032;-77
2024/02/08 10:43:16;;;;;;;16.10;3.63;;;3.80;99.90;;;;;;5101373;27;20035;-76
2024/02/08 10:46:04;;;;;;;13.10;3.35;;;3.90;99.90;;;;;;5087257;27;20051;-76
2024/02/08 10:48:30;;;;;;;13.57;4.38;;;3.90;99.90;;;;;;5084549;28;20040;-76
2024/02/08 10:51:02;;;;;;;11.50;3.50;;;3.90;99.90;;;;;;5106878;27;20050;-76
2024/02/08 10:53:44;;;;;;;15.80;3.97;;;3.90;99.90;;;;;;5100758;27;20043;-76
2024/02/08 10:56:16;;;;;;;13.35;3.90;;;4.00;99.90;;;;;;5105344;27;20052;-77
2024/02/08 11:04:28;;;;;;;12.40;3.65;;;4.00;99.90;;;;;;5105309;28;20044;-76
2024/02/08 11:06:58;;;;;;;11.35;3.22;;;4.10;99.90;;;;;;5102303;28;20054;-76
2024/02/08 11:09:27;;;;;;;14.70;4.10;;;4.10;99.90;;;;;;5085273;28;20047;-77
2024/02/08 11:12:08;;;;;;;12.27;3.50;;;4.10;99.90;;;;;;5091451;28;20032;-76
2024/02/08 11:14:46;;;;;;;17.52;3.80;;;4.10;99.90;;;;;;5079440;28;20537;-76
2024/02/08 11:17:24;;;;;;;13.25;3.53;;;4.10;99.90;;;;;;5073324;28;20501;-76
2024/02/08 11:19:58;;;;;;;14.68;3.50;;;4.20;99.90;;;;;;5087615;28;20043;-76
2024/02/08 11:22:57;;;;;;;10.32;3.50;;;4.10;99.90;;;;;;5109258;28;20429;-76
2024/02/08 11:25:19;;;;;;;12.75;3.38;;;4.20;99.90;;;;;;5104310;28;20052;-76
2024/02/08 11:27:55;;;;;;;11.35;3.60;;;4.20;99.90;;;;;;5104577;28;20556;-76
2024/02/08 11:30:34;;;;;;;12.00;3.88;;;4.20;99.90;;;;;;5107095;28;20047;-75
2024/02/08 11:33:04;;;;;;;19.45;3.90;;;4.30;99.90;;;;;;5088058;28;20163;-77
2024/02/08 11:35:35;;;;;;;9.77;3.17;;;4.20;99.90;;;;;;5088596;28;20100;-76
2024/02/08 11:38:09;;;;;;;14.95;4.22;;;4.30;99.90;;;;;;5079659;28;20048;-76
2024/02/08 11:40:36;;;;;;;14.25;3.58;;;4.30;99.90;;;;;;5089808;28;20050;-76
2024/02/08 11:43:06;;;;;;;14.10;3.65;;;4.30;99.90;;;;;;5089266;28;20151;-76
2024/02/08 11:45:35;;;;;;;14.73;4.28;;;4.30;99.90;;;;;;5090908;28;20051;-77
2024/02/08 11:48:04;;;;;;;15.65;3.90;;;4.30;99.90;;;;;;5103550;28;20677;-77
2024/02/08 11:50:36;;;;;;;13.00;4.07;;;4.30;99.90;;;;;;5079410;28;20105;-76
2024/02/08 11:53:06;;;;;;;13.70;3.45;;;4.30;99.90;;;;;;5086444;28;20122;-76
2024/02/08 11:55:35;;;;;;;15.07;3.85;;;4.30;99.90;;;;;;5091006;28;20047;-76
2024/02/08 11:58:05;;;;;;;14.40;4.68;;;4.30;99.90;;;;;;5106730;28;20123;-76
2024/02/08 12:00:31;;;;;;;;;;;4.30;99.90;;;;;;5103623;28;20051;-75
2024/02/08 12:02:57;;;;;;;15.13;4.65;;;4.30;99.90;;;;;;5100093;28;19930;-76
2024/02/08 12:05:25;;;;;;;12.68;4.32;;;4.30;99.90;;;;;;5080394;28;20036;-75
2024/02/08 12:07:51;;;;;;;12.30;3.83;;;4.20;99.90;;;;;;5096938;28;20450;-76
2024/02/08 12:10:21;;;;;;;12.82;4.20;;;4.20;99.90;;;;;;5100592;28;20054;-77
2024/02/08 12:12:52;;;;;;;9.20;3.60;;;4.20;99.90;;;;;;5105841;28;20074;-76
2024/02/08 12:15:22;;;;;;;14.23;4.30;;;4.20;99.90;;;;;;5091871;28;20083;-77
2024/02/08 12:18:05;;;;;;;15.50;4.93;;;4.30;99.90;;;;;;5078496;28;20125;-77
2024/02/08 12:20:36;;;;;;;11.35;4.15;;;4.20;99.90;;;;;;5104284;28;20109;-76
2024/02/08 12:23:02;;;;;;;15.43;4.45;;;4.20;99.90;;;;;;5106058;28;20517;-76
2024/02/08 12:25:29;;;;;;;12.65;4.22;;;4.20;99.90;;;;;;5108444;28;20036;-77
2024/02/08 12:28:06;;;;;;;15.02;4.57;;;4.10;99.90;;;;;;5106486;28;20044;-76
2024/02/08 12:30:39;;;;;;;14.85;4.15;;;4.20;99.90;;;;;;5085770;28;20066;-77
2024/02/08 12:33:08;;;;;;;15.45;4.93;;;4.20;99.90;;;;;;5084798;28;20104;-76
2024/02/08 12:35:40;;;;;;;10.57;4.03;;;4.10;99.90;;;;;;5086146;28;20778;-77
2024/02/08 12:38:07;;;;;;;14.38;4.28;;;4.10;99.90;;;;;;5106011;28;20674;-76
2024/02/08 12:40:33;;;;;;;16.75;4.60;;;4.20;99.90;;;;;;5107340;28;20525;-76
2024/02/08 12:42:59;;;;;;;16.00;5.03;;;4.10;99.90;;;;;;5079603;28;20044;-77
2024/02/08 12:45:29;;;;;;;14.25;4.85;;;4.20;99.90;;;;;;5103693;28;20096;-76
2024/02/08 12:47:59;;;;;;;11.57;5.05;;;4.20;99.90;;;;;;5084811;28;20096;-76
2024/02/08 12:50:26;;;;;;;15.82;4.25;;;4.10;99.90;;;;;;5090075;28;20373;-76
2024/02/08 12:52:54;;;;;;;12.05;4.25;;;4.10;99.90;;;;;;5088450;28;20497;-77
2024/02/08 12:55:22;;;;;;;13.73;4.53;;;4.20;99.90;;;;;;5090515;28;20055;-76
2024/02/08 12:58:01;;;;;;;17.27;4.93;;;4.20;99.90;;;;;;5107740;28;20115;-76
2024/02/08 13:00:34;;;;;;;13.63;4.80;;;4.20;99.90;;;;;;5086727;28;20039;-76
2024/02/08 13:03:07;;;;;;;18.23;4.68;;;4.20;99.90;;;;;;5098023;28;20043;-76
2024/02/08 13:05:40;;;;;;;14.90;4.65;;;4.20;99.90;;;;;;5106847;28;20122;-76
2024/02/08 13:08:08;;;;;;;13.90;4.43;;;4.10;99.90;;;;;;5080935;28;20047;-76
2024/02/08 13:10:39;;;;;;;10.88;3.80;;;4.20;99.90;;;;;;5099350;28;20047;-76
2024/02/08 13:13:09;;;;;;;9.48;3.83;;;4.20;99.90;;;;;;5123333;27;20081;-76
2024/02/08 13:15:34;;;;;;;14.90;4.53;;;4.20;99.90;;;;;;5098585;28;20052;-76
2024/02/08 13:18:02;;;;;;;13.25;4.43;;;4.20;99.90;;;;;;5090406;28;20651;-75
2024/02/08 13:20:28;;;;;;;7.70;2.25;;;4.20;99.90;;;;;;5081192;28;20067;-77
2024/02/08 13:22:58;;;;;;;8.32;2.00;;;4.20;99.90;;;;;;5097135;28;20047;-77
2024/02/08 13:25:28;;;;;;;7.97;2.20;;;4.10;99.90;;;;;;5079335;28;20516;-77
2024/02/08 13:27:58;;;;;;;4.60;1.42;;;4.00;99.90;;;;;;5088525;28;20046;-77
2024/02/08 13:30:25;;;;;;;6.32;1.40;;;3.90;99.90;;;;;;5107925;28;20761;-77
2024/02/08 13:32:51;;;;;;;6.82;1.70;;;3.80;99.90;;;;;;5078210;28;21316;-78
2024/02/08 13:35:19;;;;;;;4.93;1.80;;;3.60;99.90;;;;;;5106485;28;20040;-77
2024/02/08 13:37:56;;;;;;;4.05;1.20;;;3.70;99.90;;;;;;5088181;28;20043;-78
2024/02/08 13:40:24;;;;;;;5.05;1.10;;;3.50;99.90;;;;;;5081431;28;20205;-77
2024/02/08 13:42:56;;;;;;;4.72;1.10;;;3.40;99.90;;;;;;5105584;28;20171;-76
2024/02/08 13:45:28;;;;;;;4.68;1.55;;;3.30;99.90;;;;;;5101686;28;20059;-79
2024/02/08 13:47:56;;;;;;;6.55;1.80;;;3.30;99.90;;;;;;5083463;28;20048;-77
2024/02/08 13:50:23;;;;;;;6.43;1.98;;;3.10;99.90;;;;;;5069498;28;20195;-77
2024/02/08 13:52:53;;;;;;;6.18;2.22;;;3.10;99.90;;;;;;5088420;28;20043;-78
2024/02/08 13:55:25;;;;;;;8.65;2.30;;;2.90;99.90;;;;;;5089839;28;20047;-78
2024/02/08 13:57:51;;;;;;;8.05;2.10;;;2.90;99.90;;;;;;5081715;28;20562;-78
2024/02/08 14:00:26;;;;;;;5.43;2.40;;;2.80;99.90;;;;;;5074748;28;20513;-78
2024/02/08 14:02:55;;;;;;;8.90;2.30;;;2.60;99.90;;;;;;5097739;28;20183;-78
2024/02/08 14:05:23;;;;;;;4.97;2.05;;;2.60;99.90;;;;;;5097018;28;20040;-78
2024/02/08 14:07:57;;;;;;;5.30;1.92;;;2.50;99.90;;;;;;5080201;28;20047;-79
2024/02/08 14:10:27;;;;;;;6.93;2.45;;;2.40;99.90;;;;;;5096125;28;20047;-79
2024/02/08 14:12:59;;;;;;;;;;;2.30;99.90;;;;;;5096258;28;20048;-79
2024/02/08 14:15:31;;;;;;;4.72;2.15;;;2.30;99.90;;;;;;5097541;28;20349;-78
2024/02/08 14:17:58;;;;;;;5.68;2.35;;;2.20;99.90;;;;;;5079175;28;20052;-79
2024/02/08 14:20:30;;;;;;;6.13;2.53;;;2.10;99.90;;;;;;5097820;28;20374;-79
2024/02/08 14:22:59;;;;;;;7.10;2.50;;;2.00;99.90;;;;;;5104120;28;20428;-79
2024/02/08 14:25:48;;;;;;;8.23;2.65;;;2.00;99.90;;;;;;5083376;28;20714;-80
2024/02/08 14:28:15;;;;;;;6.43;2.33;;;1.90;99.90;;;;;;5100280;28;20417;-80
2024/02/08 14:30:43;;;;;;;8.85;2.95;;;1.90;99.90;;;;;;5084734;28;20414;-80
2024/02/08 14:33:12;;;;;;;7.90;2.80;;;1.80;99.90;;;;;;5100874;28;20046;-80
2024/02/08 14:35:38;;;;;;;5.97;2.50;;;1.80;99.90;;;;;;5081372;28;20031;-79
2024/02/08 14:38:07;;;;;;;5.13;2.70;;;1.70;99.90;;;;;;5081376;28;20053;-79
2024/02/08 14:40:37;;;;;;;7.05;2.70;;;1.70;99.90;;;;;;5082913;28;20112;-79
2024/02/08 14:43:05;;;;;;;7.35;2.95;;;1.70;99.90;;;;;;5099702;28;20567;-79
2024/02/08 14:45:39;;;;;;;7.40;2.97;;;1.60;99.90;;;;;;5086518;28;20039;-79
2024/02/08 14:48:11;;;;;;;9.18;3.13;;;1.60;99.90;;;;;;5079285;28;20066;-79
2024/02/08 14:50:51;;;;;;;7.82;3.33;;;1.50;99.90;;;;;;5100921;28;20043;-79
2024/02/08 14:53:17;;;;;;;6.75;2.72;;;1.50;99.90;;;;;;5078579;28;20047;-79
2024/02/08 14:55:46;;;;;;;8.38;3.50;;;1.50;99.90;;;;;;5101481;28;20127;-79
2024/02/08 15:01:07;;;;;;;6.95;3.28;;;1.50;99.90;;;;;;5099760;28;20127;-79
2024/02/08 15:03:49;;;;;;;8.48;3.40;;;1.50;99.90;;;;;;5086316;28;20043;-78
2024/02/08 15:11:57;;;;;;;8.77;3.67;;;1.40;99.90;;;;;;5098791;28;20409;-79
2024/02/08 15:14:28;;;;;;;7.30;3.35;;;1.40;99.90;;;;;;5086456;28;20127;-78
2024/02/08 15:17:07;;;;;;;7.97;3.38;;;1.40;99.90;;;;;;5106716;28;20044;-78
2024/02/08 15:19:45;;;;;;;8.50;3.38;;;1.40;99.90;;;;;;5103317;28;20048;-77
2024/02/08 15:22:18;;;;;;;6.90;3.85;;;1.50;99.90;;;;;;5103852;28;20134;-78
2024/02/08 15:24:48;;;;;;;9.07;3.97;;;1.30;99.90;;;;;;5084293;28;20089;-78
2024/02/08 15:27:21;;;;;;;8.43;3.53;;;1.30;99.90;;;;;;5114974;27;20374;-78
2024/02/08 15:30:10;;;;;;;10.43;4.72;;;1.40;99.90;;;;;;5088227;28;20059;-78
2024/02/08 15:35:36;;;;;;;8.10;3.92;;;1.30;99.90;;;;;;5104888;28;20051;-78
2024/02/08 15:40:47;;;;;;;5.88;3.70;;;1.30;99.90;;;;;;5103191;28;20409;-78